Time;durP1;ratioP1;P1;durP2;ratioP2;P2;SDS_P1;SDS_P2;PMS_P1;PMS_P2;Temp;Humidity;BMP_temperature;BMP_pressure;BME280_temperature;BME280_humidity;BME280_pressure;Samples;Min_cycle;Max_cycle;Signal;HPM_P1;HPM_P2
2022/05/30 00:00:20;;;;;;;;;3.00;1.75;;;;;14.40;48.51;101149.69;2457900;27;47927;-83
2022/05/30 00:01:31;;;;;;;;;3.00;2.75;;;;;14.42;48.43;101157.56;2457210;27;45213;-83
2022/05/30 00:02:41;;;;;;;;;4.25;2.50;;;;;14.42;48.74;101156.72;2450906;27;46935;-83
2022/05/30 00:03:52;;;;;;;;;3.00;3.00;;;;;14.39;48.54;101157.72;2451565;27;44827;-83
2022/05/30 00:05:02;;;;;;;;;4.00;2.00;;;;;14.37;48.64;101159.56;2450873;27;45274;-84
2022/05/30 00:06:18;;;;;;;;;1.75;1.75;;;;;14.37;48.78;101162.22;2450937;28;45235;-83
2022/05/30 00:07:28;;;;;;;;;3.25;3.00;;;;;14.38;48.68;101154.19;2459506;27;45533;-83
2022/05/30 00:08:39;;;;;;;;;2.00;2.00;;;;;14.37;48.58;101160.41;2453126;27;45244;-84
2022/05/30 00:09:49;;;;;;;;;2.75;2.75;;;;;14.36;48.58;101153.41;2448855;27;48327;-84
2022/05/30 00:11:07;;;;;;;;;1.00;1.00;;;;;14.33;49.04;101153.53;2454053;27;45258;-84
2022/05/30 00:12:18;;;;;;;;;4.50;3.00;;;;;14.29;48.63;101154.59;2458972;27;46626;-84
2022/05/30 00:13:28;;;;;;;;;3.00;3.00;;;;;14.25;48.92;101148.56;2452607;27;45140;-84
2022/05/30 00:14:39;;;;;;;;;1.00;1.00;;;;;14.22;49.03;101143.44;2452367;27;46763;-84
2022/05/30 00:15:49;;;;;;;;;3.25;2.50;;;;;14.21;49.04;101146.13;2461311;27;45254;-83
2022/05/30 00:17:00;;;;;;;;;1.50;1.50;;;;;14.18;49.22;101142.69;2461712;27;48059;-84
2022/05/30 00:18:12;;;;;;;;;2.25;2.00;;;;;14.17;49.04;101145.41;2454825;27;45463;-84
2022/05/30 00:19:23;;;;;;;;;2.00;2.00;;;;;14.16;49.46;101139.25;2456099;27;46634;-83
2022/05/30 00:20:34;;;;;;;;;1.00;1.00;;;;;14.15;49.30;101140.16;2451864;28;44598;-83
2022/05/30 00:21:44;;;;;;;;;2.00;2.00;;;;;14.17;49.18;101137.47;2452010;28;45356;-84
2022/05/30 00:22:54;;;;;;;;;2.00;2.00;;;;;14.16;49.54;101141.88;2451746;27;45234;-83
2022/05/30 00:24:05;;;;;;;;;1.00;1.00;;;;;14.18;49.37;101139.16;2451956;27;46311;-82
2022/05/30 00:25:16;;;;;;;;;4.25;2.25;;;;;14.14;49.46;101138.47;2452709;27;44597;-82
2022/05/30 00:26:26;;;;;;;;;4.00;1.00;;;;;14.16;49.11;101139.25;2462391;27;45463;-83
2022/05/30 00:27:36;;;;;;;;;2.25;2.00;;;;;14.17;49.20;101140.13;2452503;27;45283;-82
2022/05/30 00:28:47;;;;;;;;;2.50;2.50;;;;;14.16;49.42;101136.59;2451674;28;46272;-83
2022/05/30 00:29:57;;;;;;;;;1.00;1.00;;;;;14.12;49.40;101134.16;2454228;27;44648;-83
2022/05/30 00:31:11;;;;;;;;;1.25;1.00;;;;;14.08;49.37;101130.75;2455628;27;46296;-83
2022/05/30 00:32:22;;;;;;;;;2.00;1.50;;;;;14.06;49.54;101128.19;2451684;27;45232;-82
2022/05/30 00:33:32;;;;;;;;;2.00;2.00;;;;;14.03;49.50;101130.97;2451865;27;45483;-83
2022/05/30 00:34:42;;;;;;;;;2.00;2.00;;;;;14.01;49.71;101130.16;2451708;27;45281;-83
2022/05/30 00:35:52;;;;;;;;;2.00;2.00;;;;;14.00;49.83;101130.25;2451996;28;45422;-82
2022/05/30 00:37:03;;;;;;;;;3.00;3.00;;;;;13.96;50.08;101134.78;2452397;27;45303;-83
2022/05/30 00:38:14;;;;;;;;;1.50;1.00;;;;;13.93;49.96;101134.91;2455073;27;48211;-83
2022/05/30 00:39:25;;;;;;;;;1.00;1.00;;;;;13.90;49.82;101124.47;2461747;27;45341;-82
2022/05/30 00:40:37;;;;;;;;;1.00;1.00;;;;;13.89;50.14;101128.91;2452321;27;46256;-84
2022/05/30 00:41:47;;;;;;;;;3.00;1.50;;;;;13.89;50.05;101130.66;2455426;27;44730;-84
2022/05/30 00:43:20;;;;;;;;;1.00;1.00;;;;;13.89;50.32;101125.38;2454744;27;46752;-85
2022/05/30 00:44:30;;;;;;;;;4.25;2.00;;;;;13.89;50.06;101126.25;2457598;27;44676;-85
2022/05/30 00:45:40;;;;;;;;;2.25;1.75;;;;;13.88;50.13;101121.03;2461219;27;46993;-85
2022/05/30 00:46:51;;;;;;;;;3.25;2.50;;;;;13.86;50.39;101115.81;2451504;28;45326;-86
2022/05/30 00:48:01;;;;;;;;;3.00;2.50;;;;;13.87;50.37;101119.31;2451621;28;46589;-86
2022/05/30 00:49:13;;;;;;;;;2.00;1.50;;;;;13.87;49.74;101114.88;2452730;27;45293;-86
2022/05/30 00:50:23;;;;;;;;;1.50;1.50;;;;;13.89;50.35;101120.97;2451457;28;48367;-83
2022/05/30 00:51:39;;;;;;;;;2.00;2.00;;;;;13.87;50.53;101117.53;2457951;27;45381;-88
2022/05/30 00:52:49;;;;;;;;;1.00;1.00;;;;;13.91;50.44;101120.88;2458793;27;46483;-86
2022/05/30 00:54:02;;;;;;;;;1.75;1.75;;;;;13.89;50.41;101123.59;2458112;27;45446;-84
2022/05/30 00:55:20;;;;;;;;;1.75;1.75;;;;;13.90;50.46;101125.31;2454549;27;46265;-83
2022/05/30 00:56:37;;;;;;;;;1.50;1.50;;;;;13.92;50.83;101123.50;2452464;27;45357;-83
2022/05/30 00:57:49;;;;;;;;;2.25;1.00;;;;;13.92;50.44;101120.84;2452094;27;45262;-84
2022/05/30 00:59:01;;;;;;;;;1.25;1.25;;;;;13.95;50.52;101117.22;2456896;27;45293;-84
2022/05/30 01:00:19;;;;;;;;;1.25;1.25;;;;;13.97;50.66;101111.88;2459558;27;46160;-83
2022/05/30 01:01:31;;;;;;;;;3.50;3.00;;;;;13.99;50.63;101117.94;2452477;27;45136;-84
2022/05/30 01:02:41;;;;;;;;;2.00;2.00;;;;;13.98;50.42;101118.84;2451987;27;46374;-84
2022/05/30 01:06:55;;;;;;;;;4.00;2.00;;;;;13.87;51.27;101109.59;2457635;27;44801;-83
2022/05/30 01:08:06;;;;;;;;;2.25;2.00;;;;;13.83;50.99;101108.00;2460980;27;47497;-83
2022/05/30 01:09:20;;;;;;;;;2.00;2.00;;;;;13.81;51.25;101112.47;2445138;28;44763;-84
2022/05/30 01:10:30;;;;;;;;;3.00;3.00;;;;;13.78;51.37;101104.69;2451605;28;45429;-83
2022/05/30 01:12:09;;;;;;;;;2.00;2.00;;;;;13.78;50.93;101108.19;2462184;27;45374;-84
2022/05/30 01:13:20;;;;;;;;;2.25;2.25;;;;;13.76;51.27;101109.16;2454750;27;46503;-84
2022/05/30 01:14:35;;;;;;;;;2.00;2.00;;;;;13.75;51.05;101105.69;2451394;28;45422;-86
2022/05/30 01:15:45;;;;;;;;;3.00;3.00;;;;;13.75;51.20;101100.41;2453618;27;47538;-87
2022/05/30 01:16:57;;;;;;;;;4.00;3.00;;;;;13.75;51.40;101105.69;2460594;27;45251;-87
2022/05/30 01:18:20;;;;;;;;;3.00;3.00;;;;;13.74;51.52;101106.59;2454131;27;47107;-86
2022/05/30 01:19:53;;;;;;;;;2.25;2.25;;;;;13.75;51.30;101102.19;2446111;28;45275;-87
2022/05/30 01:21:15;;;;;;;;;4.75;3.00;;;;;13.71;51.45;101094.38;2451661;28;45718;-87
2022/05/30 01:22:31;;;;;;;;;3.75;2.25;;;;;13.70;51.37;101097.09;2460241;27;45404;-85
2022/05/30 01:24:06;;;;;;;;;3.75;2.50;;;;;13.69;51.65;101098.00;2445118;27;47105;-85
2022/05/30 01:25:19;;;;;;;;;4.00;3.00;;;;;13.68;51.46;101094.47;2451277;28;45262;-85
2022/05/30 01:26:47;;;;;;;;;4.00;3.00;;;;;13.70;51.64;101097.91;2450913;27;47235;-85
2022/05/30 01:28:22;;;;;;;;;4.00;3.50;;;;;13.70;51.61;101095.28;2446751;28;45231;-85
2022/05/30 01:29:38;;;;;;;;;4.00;2.50;;;;;13.70;51.71;101092.63;2451467;28;46533;-83
2022/05/30 01:30:49;;;;;;;;;2.75;2.75;;;;;13.71;51.70;101096.16;2459239;27;45222;-84
2022/05/30 01:32:00;;;;;;;;;2.75;2.25;;;;;13.71;51.95;101091.72;2461011;27;48490;-85
2022/05/30 01:33:10;;;;;;;;;2.00;2.00;;;;;13.71;51.84;101090.88;2454179;27;45318;-85
2022/05/30 01:34:26;;;;;;;;;2.00;2.00;;;;;13.75;51.73;101092.47;2461190;27;46147;-85
2022/05/30 01:35:37;;;;;;;;;5.25;3.75;;;;;13.73;51.69;101089.88;2453983;27;44638;-85
2022/05/30 01:36:47;;;;;;;;;3.50;2.75;;;;;13.74;51.92;101082.81;2453690;27;47094;-85
2022/05/30 01:37:59;;;;;;;;;4.75;4.75;;;;;13.73;51.40;101087.25;2454092;27;45234;-85
2022/05/30 01:39:09;;;;;;;;;3.25;3.00;;;;;13.75;51.54;101089.84;2452570;27;45812;-84
2022/05/30 01:40:20;;;;;;;;;3.25;3.25;;;;;13.77;51.59;101092.41;2454925;27;45248;-84
2022/05/30 01:41:30;;;;;;;;;5.75;3.75;;;;;13.79;51.86;101093.19;2453398;27;45269;-84
2022/05/30 01:42:40;;;;;;;;;2.75;2.75;;;;;13.80;51.95;101087.84;2452218;28;45455;-84
2022/05/30 01:43:51;;;;;;;;;4.25;4.00;;;;;13.82;51.76;101093.06;2451666;27;45656;-84
2022/05/30 01:45:02;;;;;;;;;6.50;3.50;;;;;13.82;51.99;101091.31;2451787;27;45472;-87
2022/05/30 01:46:16;;;;;;;;;4.25;4.25;;;;;13.83;51.92;101092.13;2451751;27;46085;-87
2022/05/30 01:47:26;;;;;;;;;4.25;4.00;;;;;13.81;51.70;101086.06;2451712;27;45235;-87
2022/05/30 01:48:37;;;;;;;;;3.50;3.50;;;;;13.81;51.91;101092.22;2450991;27;47326;-87
2022/05/30 01:49:47;;;;;;;;;3.75;2.75;;;;;13.80;51.87;101092.28;2451113;27;45257;-89
2022/05/30 01:50:59;;;;;;;;;3.00;3.00;;;;;13.76;51.89;101082.75;2451903;27;45615;-90
2022/05/30 01:52:10;;;;;;;;;4.00;4.00;;;;;13.79;51.97;101086.13;2459544;27;44624;-85
2022/05/30 01:53:20;;;;;;;;;4.00;3.00;;;;;13.78;51.95;101086.22;2460370;27;45538;-85
2022/05/30 01:54:31;;;;;;;;;4.00;3.00;;;;;13.77;52.04;101081.84;2460832;27;45250;-85
2022/05/30 01:55:41;;;;;;;;;4.75;4.75;;;;;13.79;51.88;101085.28;2454029;27;47667;-85
2022/05/30 01:56:51;;;;;;;;;5.50;4.75;;;;;13.76;51.90;101082.75;2455863;27;44691;-86
2022/05/30 01:58:02;;;;;;;;;3.50;3.50;;;;;13.76;52.11;101085.38;2450807;28;47204;-83
2022/05/30 01:59:12;;;;;;;;;3.75;3.25;;;;;13.75;51.81;101088.97;2450957;28;45344;-83
2022/05/30 02:00:23;;;;;;;;;3.00;3.00;;;;;13.75;52.20;101088.97;2450982;28;46337;-82
2022/05/30 02:01:33;;;;;;;;;2.75;2.75;;;;;13.70;52.16;101090.00;2457200;27;45381;-83
2022/05/30 02:02:44;;;;;;;;;3.25;3.00;;;;;13.69;52.15;101090.94;2461205;27;47441;-83
2022/05/30 02:03:55;;;;;;;;;6.00;4.00;;;;;13.65;52.33;101088.47;2458468;27;45256;-83
2022/05/30 02:05:06;;;;;;;;;4.00;3.00;;;;;13.63;52.64;101093.81;2459192;27;45528;-82
2022/05/30 02:06:19;;;;;;;;;5.00;4.50;;;;;13.63;52.39;101085.06;2458242;27;44674;-82
2022/05/30 02:07:30;;;;;;;;;4.00;4.00;;;;;13.60;52.10;101092.19;2460088;27;46456;-82
2022/05/30 02:08:41;;;;;;;;;4.00;3.00;;;;;13.60;52.48;101092.19;2451767;27;45398;-86
2022/05/30 02:09:51;;;;;;;;;6.00;3.25;;;;;13.60;52.29;101094.81;2458176;27;47420;-86
2022/05/30 02:11:02;;;;;;;;;3.75;3.75;;;;;13.61;52.15;101095.66;2453767;27;45492;-84
2022/05/30 02:12:12;;;;;;;;;5.25;4.25;;;;;13.60;52.50;101096.59;2452910;27;45878;-84
2022/05/30 02:13:23;;;;;;;;;4.00;4.00;;;;;13.59;52.24;101092.22;2450893;28;44776;-85
2022/05/30 02:14:33;;;;;;;;;6.75;5.00;;;;;13.60;52.32;101094.81;2450602;28;47306;-88
2022/05/30 02:17:13;;;;;;;;;4.00;3.00;;;;;13.59;52.29;101092.22;2451569;28;45781;-87
2022/05/30 02:18:23;;;;;;;;;3.75;3.75;;;;;13.55;52.56;101083.53;2454246;27;45140;-86
2022/05/30 02:19:39;;;;;;;;;5.00;5.00;;;;;13.56;52.29;101090.56;2451461;27;46725;-87
2022/05/30 02:20:50;;;;;;;;;5.00;4.00;;;;;13.56;52.41;101089.66;2451792;27;45165;-89
2022/05/30 02:22:00;;;;;;;;;3.50;3.50;;;;;13.55;52.25;101085.31;2450678;27;46945;-88
2022/05/30 02:23:11;;;;;;;;;5.00;3.75;;;;;13.53;52.47;101090.66;2443702;27;44835;-86
2022/05/30 02:24:21;;;;;;;;;3.25;3.25;;;;;13.53;52.03;101089.81;2444187;27;47295;-84
2022/05/30 02:25:31;;;;;;;;;2.25;2.00;;;;;13.48;52.59;101082.91;2460718;27;44746;-87
2022/05/30 02:26:42;;;;;;;;;4.00;4.00;;;;;13.47;52.63;101083.84;2454738;27;45483;-91
2022/05/30 02:27:52;;;;;;;;;3.25;3.25;;;;;13.48;52.44;101088.19;2453672;27;44725;-89
2022/05/30 02:29:04;;;;;;;;;3.00;1.25;;;;;13.46;52.46;101079.47;2451159;27;45270;-91
2022/05/30 02:30:14;;;;;;;;;3.00;3.00;;;;;13.46;52.39;101089.16;2466776;27;44788;-87
2022/05/30 02:31:25;;;;;;;;;4.00;4.00;;;;;13.44;52.56;101089.25;2459703;27;47887;-83
2022/05/30 02:32:35;;;;;;;;;4.50;4.00;;;;;13.46;52.45;101086.53;2460203;27;45246;-83
2022/05/30 02:36:44;;;;;;;;;3.00;3.00;;;;;13.44;52.64;101091.00;2451505;28;45309;-85
2022/05/30 02:37:54;;;;;;;;;3.00;3.00;;;;;13.43;52.73;101095.47;2452987;27;45307;-84
2022/05/30 02:39:08;;;;;;;;;5.25;3.25;;;;;13.43;52.69;101094.59;2454449;27;47547;-84
2022/05/30 02:40:19;;;;;;;;;3.75;3.75;;;;;13.40;52.59;101092.94;2459894;27;45235;-84
2022/05/30 02:41:29;;;;;;;;;5.25;3.00;;;;;13.38;53.34;101089.50;2456911;27;46871;-84
2022/05/30 02:42:40;;;;;;;;;5.50;3.25;;;;;13.37;52.70;101091.28;2443851;27;45219;-94
2022/05/30 02:43:50;;;;;;;;;3.00;3.00;;;;;13.34;53.00;101085.25;2457404;27;45406;-90
2022/05/30 02:45:01;;;;;;;;;3.00;3.00;;;;;13.32;53.06;101092.34;2460315;27;44834;-86
2022/05/30 02:46:11;;;;;;;;;3.25;3.25;;;;;13.31;52.91;101085.38;2457254;27;47184;-85
2022/05/30 02:47:22;;;;;;;;;3.00;3.00;;;;;13.30;53.15;101084.50;2453787;27;45370;-88
2022/05/30 02:48:32;;;;;;;;;3.00;3.00;;;;;13.28;52.90;101091.63;2450443;28;47166;-87
2022/05/30 02:49:43;;;;;;;;;3.75;3.50;;;;;13.28;53.07;101081.06;2450971;28;45295;-85
2022/05/30 02:50:53;;;;;;;;;3.75;3.25;;;;;13.27;53.02;101085.50;2462044;27;46971;-87
2022/05/30 02:52:04;;;;;;;;;4.25;4.00;;;;;13.27;53.07;101085.50;2457883;27;45267;-88
2022/05/30 02:53:15;;;;;;;;;2.00;2.00;;;;;13.28;52.97;101087.19;2451118;27;48075;-85
2022/05/30 02:54:26;;;;;;;;;7.25;4.00;;;;;13.30;53.27;101089.78;2460789;27;45296;-84
2022/05/30 02:55:37;;;;;;;;;3.75;3.75;;;;;13.28;53.06;101089.84;2461287;27;46631;-88
2022/05/30 02:56:50;;;;;;;;;2.75;2.75;;;;;13.28;53.24;101089.00;2461302;27;45215;-86
2022/05/30 02:58:00;;;;;;;;;3.00;3.00;;;;;13.25;53.22;101087.34;2460393;27;47053;-86
2022/05/30 02:59:10;;;;;;;;;5.00;4.00;;;;;13.23;53.63;101091.81;2452773;27;44736;-85
2022/05/30 03:00:21;;;;;;;;;4.00;4.00;;;;;13.22;53.46;101092.72;2452079;27;47081;-88
2022/05/30 03:01:32;;;;;;;;;4.00;4.00;;;;;13.19;53.53;101082.28;2453127;27;45187;-87
2022/05/30 03:02:43;;;;;;;;;3.50;3.50;;;;;13.20;53.54;101091.94;2460473;27;45422;-88
2022/05/30 03:03:53;;;;;;;;;2.00;2.00;;;;;13.20;53.67;101096.34;2460424;27;45324;-89
2022/05/30 03:05:04;;;;;;;;;3.00;3.00;;;;;13.21;53.45;101093.63;2457719;27;45340;-88
2022/05/30 03:06:14;;;;;;;;;4.00;4.00;;;;;13.18;53.42;101091.13;2451429;27;45120;-88
2022/05/30 03:07:25;;;;;;;;;4.00;4.00;;;;;13.15;53.76;101094.75;2452233;27;46941;-87
2022/05/30 03:08:35;;;;;;;;;6.75;3.00;;;;;13.14;53.61;101098.28;2456927;27;45273;-87
2022/05/30 03:09:45;;;;;;;;;5.50;5.25;;;;;13.12;53.71;101097.50;2458015;27;46526;-87
2022/05/30 03:10:56;;;;;;;;;6.00;5.00;;;;;13.09;53.96;101094.13;2457224;27;45225;-86
2022/05/30 03:12:07;;;;;;;;;5.50;5.25;;;;;13.09;54.15;101096.75;2457113;27;47278;-87
2022/05/30 03:13:17;;;;;;;;;5.00;4.00;;;;;13.07;54.01;101094.16;2457780;27;44732;-87
2022/05/30 03:14:28;;;;;;;;;5.00;3.75;;;;;13.09;53.88;101091.50;2469343;27;48403;-88
2022/05/30 03:15:38;;;;;;;;;4.00;4.00;;;;;13.09;53.76;101099.41;2464984;27;45522;-86
2022/05/30 03:16:49;;;;;;;;;4.00;4.00;;;;;13.05;54.14;101091.59;2459851;27;48288;-84
2022/05/30 03:17:59;;;;;;;;;7.75;5.00;;;;;13.03;53.86;101096.06;2450847;27;44645;-87
2022/05/30 03:19:10;;;;;;;;;4.25;4.00;;;;;13.02;54.04;101094.34;2450606;28;46087;-84
2022/05/30 03:20:21;;;;;;;;;6.00;5.50;;;;;13.01;54.57;101095.25;2455046;27;44708;-88
2022/05/30 03:21:31;;;;;;;;;7.25;6.25;;;;;13.01;54.29;101097.06;2450364;28;47343;-87
2022/05/30 03:22:42;;;;;;;;;5.25;5.00;;;;;13.02;54.20;101096.97;2443383;28;44680;-84
2022/05/30 03:23:53;;;;;;;;;5.50;5.25;;;;;13.05;54.50;101091.59;2450662;28;45346;-85
2022/05/30 03:25:04;;;;;;;;;7.00;5.25;;;;;13.07;54.05;101098.56;2451203;27;44703;-85
2022/05/30 03:26:16;;;;;;;;;5.25;3.25;;;;;13.05;54.36;101096.00;2450229;27;47841;-85
2022/05/30 03:27:26;;;;;;;;;7.50;5.50;;;;;13.05;53.96;101098.66;2443994;28;45334;-86
2022/05/30 03:28:38;;;;;;;;;7.25;7.25;;;;;13.07;54.34;101096.81;2460173;27;46312;-85
2022/05/30 03:29:48;;;;;;;;;4.25;4.00;;;;;13.06;54.15;101095.09;2460032;27;45453;-85
2022/05/30 03:31:00;;;;;;;;;8.50;5.25;;;;;13.05;54.25;101096.88;2450254;28;47078;-86
2022/05/30 03:32:10;;;;;;;;;7.00;5.00;;;;;13.02;54.42;101101.38;2443586;28;45268;-85
2022/05/30 03:33:21;;;;;;;;;7.50;5.00;;;;;13.02;54.23;101096.97;2451697;27;48144;-85
2022/05/30 03:34:31;;;;;;;;;5.25;4.00;;;;;13.05;54.27;101101.28;2453058;27;45349;-85
2022/05/30 03:35:42;;;;;;;;;7.00;5.00;;;;;13.03;54.33;101101.34;2459972;27;45304;-85
2022/05/30 03:36:52;;;;;;;;;6.75;5.25;;;;;13.03;54.44;101104.00;2450605;28;45243;-85
2022/05/30 03:38:04;;;;;;;;;6.00;6.00;;;;;12.97;54.63;101101.56;2454147;27;45252;-85
2022/05/30 03:39:15;;;;;;;;;7.50;5.50;;;;;12.95;54.51;101098.13;2452957;27;45433;-83
2022/05/30 03:40:26;;;;;;;;;8.25;5.25;;;;;12.94;54.47;101099.03;2453889;27;45762;-83
2022/05/30 03:41:36;;;;;;;;;6.25;5.00;;;;;12.95;54.51;101098.13;2452100;27;45498;-83
2022/05/30 03:42:46;;;;;;;;;6.00;6.00;;;;;12.94;54.52;101093.75;2459883;27;46188;-83
2022/05/30 03:44:00;;;;;;;;;9.50;4.75;;;;;12.96;54.90;101102.50;2452441;27;45294;-84
2022/05/30 03:45:13;;;;;;;;;4.75;4.75;;;;;13.00;54.70;101106.75;2453740;27;47325;-83
2022/05/30 03:46:23;;;;;;;;;7.00;7.00;;;;;12.99;54.85;101102.38;2450759;27;45510;-84
2022/05/30 03:47:42;;;;;;;;;11.50;5.25;;;;;12.99;54.62;101107.66;2450524;27;46486;-84
2022/05/30 03:48:52;;;;;;;;;5.50;5.50;;;;;12.95;54.55;101098.13;2457846;27;45331;-83
2022/05/30 03:50:03;;;;;;;;;8.25;6.00;;;;;12.98;54.55;101108.56;2456051;27;45399;-83
2022/05/30 03:51:14;;;;;;;;;6.25;6.25;;;;;13.00;54.64;101105.88;2454246;27;45560;-84
2022/05/30 03:52:24;;;;;;;;;6.75;5.25;;;;;12.99;54.27;101099.72;2461856;27;48027;-83
2022/05/30 03:53:34;;;;;;;;;6.50;4.25;;;;;12.98;54.68;101105.06;2452824;27;45464;-83
2022/05/30 03:54:45;;;;;;;;;5.75;5.75;;;;;12.99;54.44;101106.81;2452412;27;47868;-82
2022/05/30 03:55:55;;;;;;;;;9.50;6.50;;;;;12.97;54.51;101103.34;2457298;27;45772;-83
2022/05/30 03:57:06;;;;;;;;;6.25;4.50;;;;;12.97;54.47;101104.19;2449925;27;48017;-82
2022/05/30 03:58:17;;;;;;;;;6.50;6.50;;;;;12.97;54.84;101103.34;2453513;27;45271;-83
2022/05/30 03:59:27;;;;;;;;;6.25;6.00;;;;;12.97;54.48;101109.47;2455956;27;48315;-83
2022/05/30 04:00:39;;;;;;;;;5.25;5.25;;;;;13.01;54.48;101104.97;2451488;27;45342;-82
2022/05/30 04:01:50;;;;;;;;;5.00;4.00;;;;;12.99;54.70;101101.53;2456476;27;47572;-83
2022/05/30 04:03:02;;;;;;;;;6.50;3.25;;;;;12.99;54.28;101107.66;2457649;27;45330;-83
2022/05/30 04:04:13;;;;;;;;;4.00;4.00;;;;;13.03;54.46;101111.91;2452826;27;46756;-82
2022/05/30 04:05:23;;;;;;;;;5.75;5.00;;;;;13.00;54.58;101109.38;2456553;27;45295;-86
2022/05/30 04:06:34;;;;;;;;;7.75;5.75;;;;;13.00;54.49;101109.38;2462214;27;48072;-86
2022/05/30 04:07:45;;;;;;;;;7.50;4.00;;;;;13.01;54.60;101115.53;2460075;27;45275;-86
2022/05/30 04:08:55;;;;;;;;;6.50;6.50;;;;;12.97;54.12;101120.03;2451314;27;45507;-86
2022/05/30 04:10:06;;;;;;;;;6.50;4.75;;;;;12.94;54.31;101118.38;2451093;27;45302;-86
2022/05/30 04:11:16;;;;;;;;;5.00;5.00;;;;;12.93;54.43;101124.59;2457366;27;48089;-87
2022/05/30 04:12:27;;;;;;;;;7.00;4.00;;;;;12.93;54.47;101119.31;2458608;27;45361;-85
2022/05/30 04:13:37;;;;;;;;;7.25;5.25;;;;;12.96;54.63;101123.63;2460627;27;45654;-86
2022/05/30 04:14:55;;;;;;;;;7.50;7.00;;;;;12.96;54.53;101118.34;2450013;28;45294;-86
2022/05/30 04:16:12;;;;;;;;;9.00;5.50;;;;;12.97;54.41;101129.72;2443808;28;47168;-86
2022/05/30 04:17:24;;;;;;;;;4.00;4.00;;;;;12.94;54.18;101117.50;2450439;28;45304;-86
2022/05/30 04:18:34;;;;;;;;;7.00;7.00;;;;;12.94;54.34;101128.06;2451505;27;46434;-86
2022/05/30 04:19:44;;;;;;;;;7.50;5.25;;;;;12.93;54.37;101126.34;2460001;27;44600;-86
2022/05/30 04:20:55;;;;;;;;;6.75;6.00;;;;;12.92;54.43;101124.63;2457587;27;45642;-85
2022/05/30 04:22:05;;;;;;;;;6.50;4.50;;;;;12.91;54.31;101130.84;2450951;27;45212;-86
2022/05/30 04:23:16;;;;;;;;;7.00;7.00;;;;;12.90;54.33;101129.97;2459026;27;47213;-86
2022/05/30 04:24:26;;;;;;;;;7.25;5.25;;;;;12.91;54.75;101136.94;2462699;27;45308;-86
2022/05/30 04:25:37;;;;;;;;;8.25;6.00;;;;;12.93;54.42;101134.28;2457744;27;47256;-83
2022/05/30 04:26:47;;;;;;;;;5.25;5.25;;;;;12.92;54.42;101132.53;2446637;28;45242;-85
2022/05/30 04:27:58;;;;;;;;;4.00;4.00;;;;;12.93;54.38;101131.63;2450093;27;46475;-85
2022/05/30 04:29:08;;;;;;;;;9.75;5.25;;;;;12.92;54.37;101124.63;2460469;27;45164;-85
2022/05/30 04:30:19;;;;;;;;;7.75;7.00;;;;;12.93;54.28;101129.00;2451096;27;45197;-85
2022/05/30 04:31:29;;;;;;;;;7.75;5.25;;;;;12.91;54.40;101131.66;2454059;27;45291;-85
2022/05/30 04:32:39;;;;;;;;;6.50;3.00;;;;;12.90;54.66;101131.72;2448675;27;47816;-86
2022/05/30 04:33:50;;;;;;;;;4.50;4.00;;;;;12.90;54.27;101129.09;2452615;27;45254;-86
2022/05/30 04:35:00;;;;;;;;;8.00;4.00;;;;;12.89;54.54;101132.66;2458985;27;45466;-86
2022/05/30 04:36:13;;;;;;;;;8.00;5.50;;;;;12.89;54.55;101137.94;2454528;27;45229;-85
2022/05/30 04:37:23;;;;;;;;;7.00;7.00;;;;;12.86;54.38;101138.06;2452303;27;47294;-85
2022/05/30 04:38:34;;;;;;;;;8.00;7.75;;;;;12.86;54.52;101135.41;2455413;27;44794;-86
2022/05/30 04:39:44;;;;;;;;;6.50;4.25;;;;;12.86;54.68;101133.63;2454165;27;46225;-85
2022/05/30 04:40:55;;;;;;;;;6.50;6.50;;;;;12.87;54.67;101145.91;2453096;27;45768;-85
2022/05/30 04:42:06;;;;;;;;;8.50;5.25;;;;;12.86;54.53;101138.06;2442641;28;48059;-85
2022/05/30 04:43:16;;;;;;;;;3.00;3.00;;;;;12.86;54.49;101135.41;2457559;27;45346;-85
2022/05/30 04:44:27;;;;;;;;;8.25;4.00;;;;;12.83;54.60;101134.59;2460203;27;45343;-86
2022/05/30 04:45:37;;;;;;;;;5.50;5.25;;;;;12.82;54.55;101140.78;2451938;27;45267;-86
2022/05/30 04:46:55;;;;;;;;;5.00;5.00;;;;;12.85;54.51;101141.59;2455098;27;46310;-85
2022/05/30 04:48:06;;;;;;;;;6.75;6.75;;;;;12.85;54.62;101136.31;2460633;27;45479;-85
2022/05/30 04:49:16;;;;;;;;;5.25;4.00;;;;;12.83;54.50;101133.75;2459678;27;46986;-85
2022/05/30 04:50:26;;;;;;;;;5.25;5.25;;;;;12.82;54.40;101138.16;2456463;27;45277;-85
2022/05/30 04:51:37;;;;;;;;;8.00;5.50;;;;;12.81;54.62;101136.44;2454413;27;46410;-85
2022/05/30 04:52:47;;;;;;;;;7.25;5.75;;;;;12.82;54.65;101137.28;2454856;27;45358;-86
2022/05/30 04:53:58;;;;;;;;;8.25;5.75;;;;;12.82;54.99;101130.22;2444659;28;47267;-86
2022/05/30 04:55:10;;;;;;;;;6.25;5.25;;;;;12.85;54.86;101134.53;2445969;27;45431;-86
2022/05/30 04:56:21;;;;;;;;;6.75;4.00;;;;;12.86;54.74;101132.78;2462300;27;47218;-86
2022/05/30 04:57:31;;;;;;;;;8.00;4.00;;;;;12.85;54.73;101136.31;2451579;28;45423;-85
2022/05/30 04:58:42;;;;;;;;;8.50;5.25;;;;;12.85;54.75;101137.19;2458212;27;46262;-86
2022/05/30 04:59:52;;;;;;;;;5.50;5.50;;;;;12.87;54.51;101134.47;2455628;27;44822;-86
2022/05/30 05:01:06;;;;;;;;;8.75;7.75;;;;;12.89;54.62;101136.13;2450932;27;45401;-87
2022/05/30 05:02:17;;;;;;;;;5.25;5.25;;;;;12.89;54.57;101135.31;2453902;27;45318;-87
2022/05/30 05:03:28;;;;;;;;;8.25;8.00;;;;;12.86;54.57;101132.78;2451097;27;45494;-87
2022/05/30 05:04:39;;;;;;;;;6.50;5.25;;;;;12.83;54.65;101134.59;2451936;27;45227;-87
2022/05/30 05:05:50;;;;;;;;;5.00;5.00;;;;;12.85;54.50;101138.94;2455120;27;47329;-87
2022/05/30 05:07:03;;;;;;;;;10.25;7.50;;;;;12.85;54.94;101134.53;2449589;27;45270;-87
2022/05/30 05:08:16;;;;;;;;;7.25;4.25;;;;;12.86;54.84;101143.31;2457275;27;46410;-86
2022/05/30 05:09:56;;;;;;;;;4.00;4.00;;;;;12.81;54.56;101131.16;2453121;27;45276;-86
2022/05/30 05:11:12;;;;;;;;;7.50;7.25;;;;;12.79;54.42;101138.25;2449856;27;45339;-87
2022/05/30 05:12:23;;;;;;;;;8.50;7.25;;;;;12.79;54.61;101140.88;2450840;27;45403;-87
2022/05/30 05:13:33;;;;;;;;;8.75;7.00;;;;;12.77;54.78;101144.50;2455902;27;45893;-87
2022/05/30 05:14:43;;;;;;;;;8.50;7.25;;;;;12.74;54.69;101145.47;2453184;27;45650;-87
2022/05/30 05:15:57;;;;;;;;;5.00;3.00;;;;;12.73;54.83;101145.53;2456726;27;48033;-87
2022/05/30 05:17:09;;;;;;;;;6.25;5.50;;;;;12.73;54.74;101142.91;2460672;27;45410;-86
2022/05/30 05:18:19;;;;;;;;;6.50;4.75;;;;;12.72;54.69;101144.66;2460443;27;48611;-87
2022/05/30 05:19:31;;;;;;;;;8.25;7.25;;;;;12.72;54.89;101147.31;2450662;27;45287;-86
2022/05/30 05:20:42;;;;;;;;;9.50;6.50;;;;;12.73;54.84;101159.59;2454523;27;45759;-87
2022/05/30 05:21:53;;;;;;;;;6.75;5.50;;;;;12.71;54.56;101145.59;2454753;27;45430;-87
2022/05/30 05:23:03;;;;;;;;;7.75;5.50;;;;;12.68;54.74;101146.56;2448081;27;47479;-86
2022/05/30 05:24:16;;;;;;;;;6.50;5.25;;;;;12.66;54.81;101143.13;2449508;27;45254;-85
2022/05/30 05:25:26;;;;;;;;;10.00;6.50;;;;;12.65;55.24;101145.78;2449395;27;47066;-84
2022/05/30 05:26:46;;;;;;;;;9.00;6.50;;;;;12.66;54.91;101142.25;2460401;27;45286;-85
2022/05/30 05:27:56;;;;;;;;;8.00;8.00;;;;;12.68;55.14;101151.84;2452624;27;47430;-85
2022/05/30 05:29:07;;;;;;;;;11.00;7.75;;;;;12.69;54.84;101144.78;2447429;28;45226;-85
2022/05/30 05:30:17;;;;;;;;;9.00;6.25;;;;;12.70;55.00;101144.72;2451094;27;45385;-85
2022/05/30 05:31:32;;;;;;;;;8.25;7.25;;;;;12.74;55.18;101136.72;2465554;27;45209;-85
2022/05/30 05:32:43;;;;;;;;;7.50;6.75;;;;;12.75;54.78;101141.94;2456894;27;46308;-85
2022/05/30 05:33:57;;;;;;;;;7.00;5.25;;;;;12.78;54.85;101140.97;2456514;27;44836;-85
2022/05/30 05:35:07;;;;;;;;;8.00;8.00;;;;;12.80;55.02;101142.63;2451136;28;48192;-85
2022/05/30 05:36:22;;;;;;;;;9.00;6.50;;;;;12.82;54.57;101140.78;2450284;27;45414;-85
2022/05/30 05:37:34;;;;;;;;;7.00;7.00;;;;;12.85;54.61;101144.22;2455706;27;46362;-86
2022/05/30 05:38:44;;;;;;;;;6.25;5.00;;;;;12.85;54.73;101149.50;2453785;27;45182;-85
2022/05/30 05:39:54;;;;;;;;;7.50;7.00;;;;;12.87;54.89;101145.91;2462974;27;48313;-84
2022/05/30 05:41:08;;;;;;;;;6.50;6.00;;;;;12.89;54.95;101151.97;2455265;27;45388;-85